This is the latest recevied weather packets stored in our database for station/object G7GFU-13. If no packets are shown the sender has not sent any weather packets the latest 10 day(s).
| Time | Temp. | Humidity | Pressure | Rain* | Wind** | Luminosity | Snow |
|---|---|---|---|---|---|---|---|
| 1777679103 | 8.89° C | 96% | 1018.4 hPa | 0 mm | - | - | - |
| 1777665603 | 11.67° C | 94% | 1018.9 hPa | 0 mm | - | - | - |
| 1777664163 | 12.22° C | 93% | 1018.9 hPa | 0 mm | - | - | - |
| 1777662003 | 12.78° C | 92% | 1018.9 hPa | 0.25 mm | - | - | - |
| 1777659483 | 12.78° C | 91% | 1018.8 hPa | 0.25 mm | - | - | - |
| 1777659077 | 12.78° C | 90% | 1018.7 hPa | 0.25 mm | - | - | - |
| 1777658043 | 12.78° C | 89% | 1018.7 hPa | 0.25 mm | - | - | - |
| 1777654443 | 13.89° C | 84% | 1018.7 hPa | 0.25 mm | - | - | - |
| 1777653903 | 14.44° C | 82% | 1018.7 hPa | 0 mm | - | - | - |
| 1777650843 | 15.56° C | 70% | 1018.8 hPa | 0 mm | - | - | - |
| 1777648683 | 15.56° C | 70% | 1019 hPa | 0 mm | - | - | - |
| 1777645623 | 16.11° C | 67% | 1019.2 hPa | 0 mm | - | - | - |
| 1777644003 | 18.33° C | 61% | 1019.1 hPa | 0 mm | - | - | - |
| 1777643643 | 17.22° C | 61% | 1019.1 hPa | 0 mm | - | - | - |
| 1777642023 | 17.22° C | 59% | 1019.1 hPa | 0 mm | - | - | - |
| 1777641618 | 18.33° C | 57% | 1019.1 hPa | 0 mm | - | - | - |
| 1777637343 | 20.56° C | 45% | 1019.1 hPa | 0 mm | - | - | - |
| 1777634283 | 20.56° C | 44% | 1019.2 hPa | 0 mm | - | - | - |
| 1777628703 | 20° C | 44% | 1019.1 hPa | 0 mm | - | - | - |
| 1777625643 | 18.89° C | 46% | 1019.3 hPa | 0 mm | - | - | - |
| 1777623077 | 16.11° C | 48% | 1019.2 hPa | 0 mm | - | - | - |
| 1777621503 | 15.56° C | 48% | 1019.3 hPa | 0 mm | - | - | - |
| 1777619883 | 14.44° C | 49% | 1019.3 hPa | 0 mm | - | - | - |
| 1777617903 | 13.89° C | 49% | 1019.4 hPa | 0 mm | - | - | - |
| 1777614843 | 11.11° C | 55% | 1019.4 hPa | 0 mm | - | - | - |
* Rain latest hour (hover to see other rain measurements)
** Current wind speed in m/s (hover to see current wind gust speed)